sensor_id;sensor_type;location;lat;lon;timestamp;pressure;altitude;pressure_sealevel;temperature;humidity
45621;BME280;31345;51.522;10.702;2023-01-27T00:02:02;99557.34;;;-0.39;100.00
45621;BME280;31345;51.522;10.702;2023-01-27T00:04:34;99560.75;;;-0.36;100.00
45621;BME280;31345;51.522;10.702;2023-01-27T00:07:08;99565.91;;;-0.39;100.00
45621;BME280;31345;51.522;10.702;2023-01-27T00:09:41;99559.91;;;-0.38;100.00
45621;BME280;31345;51.522;10.702;2023-01-27T00:12:17;99560.78;;;-0.39;100.00
45621;BME280;31345;51.522;10.702;2023-01-27T00:15:03;99563.38;;;-0.40;100.00
45621;BME280;31345;51.522;10.702;2023-01-27T00:17:36;99561.69;;;-0.43;100.00
45621;BME280;31345;51.522;10.702;2023-01-27T00:20:09;99557.34;;;-0.38;100.00
45621;BME280;31345;51.522;10.702;2023-01-27T00:22:43;99555.63;;;-0.37;100.00
45621;BME280;31345;51.522;10.702;2023-01-27T00:25:33;99557.31;;;-0.36;100.00
45621;BME280;31345;51.522;10.702;2023-01-27T00:28:01;99559.88;;;-0.35;100.00
45621;BME280;31345;51.522;10.702;2023-01-27T00:30:31;99559.00;;;-0.35;100.00
45621;BME280;31345;51.522;10.702;2023-01-27T00:33:04;99557.28;;;-0.33;100.00
45621;BME280;31345;51.522;10.702;2023-01-27T00:35:58;99554.75;;;-0.36;100.00
45621;BME280;31345;51.522;10.702;2023-01-27T00:38:34;99552.16;;;-0.35;100.00
45621;BME280;31345;51.522;10.702;2023-01-27T00:41:07;99553.91;;;-0.38;100.00
45621;BME280;31345;51.522;10.702;2023-01-27T00:43:53;99551.34;;;-0.38;100.00
45621;BME280;31345;51.522;10.702;2023-01-27T00:46:27;99541.94;;;-0.39;100.00
45621;BME280;31345;51.522;10.702;2023-01-27T00:48:56;99549.59;;;-0.35;100.00
45621;BME280;31345;51.522;10.702;2023-01-27T00:51:23;99547.94;;;-0.40;100.00
45621;BME280;31345;51.522;10.702;2023-01-27T00:53:57;99546.19;;;-0.38;100.00
45621;BME280;31345;51.522;10.702;2023-01-27T00:56:33;99553.94;;;-0.40;100.00
45621;BME280;31345;51.522;10.702;2023-01-27T00:59:06;99552.22;;;-0.39;100.00
45621;BME280;31345;51.522;10.702;2023-01-27T01:01:38;99554.75;;;-0.38;100.00
45621;BME280;31345;51.522;10.702;2023-01-27T01:04:11;99551.06;;;-0.18;100.00
45621;BME280;31345;51.522;10.702;2023-01-27T01:06:39;99559.69;;;-0.22;100.00
45621;BME280;31345;51.522;10.702;2023-01-27T01:09:07;99560.69;;;-0.33;100.00
45621;BME280;31345;51.522;10.702;2023-01-27T01:11:35;99558.19;;;-0.37;100.00
45621;BME280;31345;51.522;10.702;2023-01-27T01:14:05;99555.59;;;-0.34;100.00
45621;BME280;31345;51.522;10.702;2023-01-27T01:16:38;99553.06;;;-0.37;100.00
45621;BME280;31345;51.522;10.702;2023-01-27T01:19:11;99553.91;;;-0.38;100.00
45621;BME280;31345;51.522;10.702;2023-01-27T01:21:43;99557.38;;;-0.41;100.00
45621;BME280;31345;51.522;10.702;2023-01-27T01:24:12;99547.91;;;-0.37;100.00
45621;BME280;31345;51.522;10.702;2023-01-27T01:26:45;99564.19;;;-0.38;100.00
45621;BME280;31345;51.522;10.702;2023-01-27T01:29:17;99558.94;;;-0.29;100.00
45621;BME280;31345;51.522;10.702;2023-01-27T01:31:50;99567.47;;;-0.28;100.00
45621;BME280;31345;51.522;10.702;2023-01-27T01:34:19;99565.72;;;-0.25;100.00
45621;BME280;31345;51.522;10.702;2023-01-27T01:36:52;99565.78;;;-0.29;100.00
45621;BME280;31345;51.522;10.702;2023-01-27T01:39:27;99563.19;;;-0.28;100.00
45621;BME280;31345;51.522;10.702;2023-01-27T01:41:59;99563.94;;;-0.21;100.00
45621;BME280;31345;51.522;10.702;2023-01-27T01:44:32;99553.78;;;-0.29;100.00
45621;BME280;31345;51.522;10.702;2023-01-27T01:47:00;99559.75;;;-0.27;100.00
45621;BME280;31345;51.522;10.702;2023-01-27T01:49:33;99558.94;;;-0.30;100.00
45621;BME280;31345;51.522;10.702;2023-01-27T01:52:10;99562.34;;;-0.28;100.00
45621;BME280;31345;51.522;10.702;2023-01-27T01:54:50;99555.50;;;-0.29;100.00
45621;BME280;31345;51.522;10.702;2023-01-27T01:57:32;99564.09;;;-0.30;100.00
45621;BME280;31345;51.522;10.702;2023-01-27T02:00:05;99564.09;;;-0.30;100.00
45621;BME280;31345;51.522;10.702;2023-01-27T02:02:56;99560.75;;;-0.37;100.00
45621;BME280;31345;51.522;10.702;2023-01-27T02:05:33;99564.97;;;-0.33;100.00
45621;BME280;31345;51.522;10.702;2023-01-27T02:08:10;99569.25;;;-0.32;100.00
45621;BME280;31345;51.522;10.702;2023-01-27T02:10:50;99575.19;;;-0.28;100.00
45621;BME280;31345;51.522;10.702;2023-01-27T02:13:25;99570.09;;;-0.30;100.00
45621;BME280;31345;51.522;10.702;2023-01-27T02:15:58;99564.09;;;-0.32;100.00
45621;BME280;31345;51.522;10.702;2023-01-27T02:18:31;99570.09;;;-0.32;100.00
45621;BME280;31345;51.522;10.702;2023-01-27T02:21:04;99570.91;;;-0.28;100.00
45621;BME280;31345;51.522;10.702;2023-01-27T02:23:47;99566.56;;;-0.24;100.00
45621;BME280;31345;51.522;10.702;2023-01-27T02:26:28;99570.88;;;-0.25;100.00
45621;BME280;31345;51.522;10.702;2023-01-27T02:29:04;99570.03;;;-0.27;100.00
45621;BME280;31345;51.522;10.702;2023-01-27T02:31:38;99567.47;;;-0.27;100.00
45621;BME280;31345;51.522;10.702;2023-01-27T02:34:08;99564.06;;;-0.29;100.00
45621;BME280;31345;51.522;10.702;2023-01-27T02:36:40;99570.03;;;-0.28;100.00
45621;BME280;31345;51.522;10.702;2023-01-27T02:39:16;99570.91;;;-0.28;100.00
45621;BME280;31345;51.522;10.702;2023-01-27T02:41:52;99574.00;;;-0.04;100.00
45621;BME280;31345;51.522;10.702;2023-01-27T02:44:26;99570.72;;;-0.15;100.00
45621;BME280;31345;51.522;10.702;2023-01-27T02:46:58;99570.88;;;-0.25;100.00
45621;BME280;31345;51.522;10.702;2023-01-27T02:49:31;99579.38;;;-0.21;100.00
45621;BME280;31345;51.522;10.702;2023-01-27T02:52:04;99590.59;;;-0.27;100.00
45621;BME280;31345;51.522;10.702;2023-01-27T02:54:37;99600.84;;;-0.25;100.00
45621;BME280;31345;51.522;10.702;2023-01-27T02:57:06;99594.81;;;-0.24;100.00
45621;BME280;31345;51.522;10.702;2023-01-27T02:59:48;99592.34;;;-0.29;100.00
45621;BME280;31345;51.522;10.702;2023-01-27T03:02:17;99593.03;;;-0.16;100.00
45621;BME280;31345;51.522;10.702;2023-01-27T03:04:48;99599.03;;;-0.19;100.00
45621;BME280;31345;51.522;10.702;2023-01-27T03:07:21;99593.16;;;-0.27;100.00
45621;BME280;31345;51.522;10.702;2023-01-27T03:09:53;99590.69;;;-0.33;100.00
45621;BME280;31345;51.522;10.702;2023-01-27T03:12:23;99596.34;;;-0.09;100.00
45621;BME280;31345;51.522;10.702;2023-01-27T03:14:56;99596.56;;;-0.23;100.00
45621;BME280;31345;51.522;10.702;2023-01-27T03:17:46;99596.41;;;-0.14;100.00
45621;BME280;31345;51.522;10.702;2023-01-27T03:20:38;99593.97;;;-0.23;100.00
45621;BME280;31345;51.522;10.702;2023-01-27T03:23:07;99584.53;;;-0.23;100.00
45621;BME280;31345;51.522;10.702;2023-01-27T03:25:37;99593.22;;;-0.30;100.00
45621;BME280;31345;51.522;10.702;2023-01-27T03:28:13;99598.28;;;-0.27;100.00
45621;BME280;31345;51.522;10.702;2023-01-27T03:30:58;99587.16;;;-0.26;100.00
45621;BME280;31345;51.522;10.702;2023-01-27T03:33:32;99599.16;;;-0.26;100.00
45621;BME280;31345;51.522;10.702;2023-01-27T03:36:14;99607.75;;;-0.27;100.00
45621;BME280;31345;51.522;10.702;2023-01-27T03:39:05;99606.88;;;-0.28;100.00
45621;BME280;31345;51.522;10.702;2023-01-27T03:41:55;99606.94;;;-0.33;100.00
45621;BME280;31345;51.522;10.702;2023-01-27T03:44:42;99607.56;;;-0.15;100.00
45621;BME280;31345;51.522;10.702;2023-01-27T03:47:35;99601.59;;;-0.19;100.00
45621;BME280;31345;51.522;10.702;2023-01-27T03:50:08;99609.44;;;-0.26;100.00
45621;BME280;31345;51.522;10.702;2023-01-27T03:52:49;99609.47;;;-0.31;100.00
45621;BME280;31345;51.522;10.702;2023-01-27T03:55:29;99607.69;;;-0.24;100.00
45621;BME280;31345;51.522;10.702;2023-01-27T03:57:57;99611.13;;;-0.25;100.00
45621;BME280;31345;51.522;10.702;2023-01-27T04:00:47;99605.19;;;-0.29;100.00
45621;BME280;31345;51.522;10.702;2023-01-27T04:03:21;99613.69;;;-0.24;100.00
45621;BME280;31345;51.522;10.702;2023-01-27T04:06:09;99605.94;;;-0.22;100.00
45621;BME280;31345;51.522;10.702;2023-01-27T04:08:54;99611.22;;;-0.33;100.00
45621;BME280;31345;51.522;10.702;2023-01-27T04:11:28;99610.38;;;-0.35;100.00
45621;BME280;31345;51.522;10.702;2023-01-27T04:14:19;99603.44;;;-0.28;100.00
45621;BME280;31345;51.522;10.702;2023-01-27T04:16:49;99606.06;;;-0.30;100.00
45621;BME280;31345;51.522;10.702;2023-01-27T04:19:22;99608.56;;;-0.27;100.00
45621;BME280;31345;51.522;10.702;2023-01-27T04:21:55;99602.66;;;-0.32;100.00
45621;BME280;31345;51.522;10.702;2023-01-27T04:24:28;99604.31;;;-0.29;100.00
45621;BME280;31345;51.522;10.702;2023-01-27T04:27:01;99605.19;;;-0.29;100.00
45621;BME280;31345;51.522;10.702;2023-01-27T04:29:36;99601.78;;;-0.31;100.00
45621;BME280;31345;51.522;10.702;2023-01-27T04:32:12;99594.97;;;-0.35;100.00
45621;BME280;31345;51.522;10.702;2023-01-27T04:34:40;99602.47;;;-0.20;100.00
45621;BME280;31345;51.522;10.702;2023-01-27T04:37:08;99606.88;;;-0.28;100.00
45621;BME280;31345;51.522;10.702;2023-01-27T04:39:41;99610.34;;;-0.30;100.00
45621;BME280;31345;51.522;10.702;2023-01-27T04:42:16;99609.50;;;-0.33;100.00
45621;BME280;31345;51.522;10.702;2023-01-27T04:44:43;99605.97;;;-0.24;100.00
45621;BME280;31345;51.522;10.702;2023-01-27T04:47:13;99612.00;;;-0.26;100.00
45621;BME280;31345;51.522;10.702;2023-01-27T04:49:46;99616.25;;;-0.25;100.00
45621;BME280;31345;51.522;10.702;2023-01-27T04:52:18;99617.19;;;-0.29;100.00
45621;BME280;31345;51.522;10.702;2023-01-27T04:54:53;99620.50;;;-0.23;100.00
45621;BME280;31345;51.522;10.702;2023-01-27T04:57:21;99620.53;;;-0.24;100.00
45621;BME280;31345;51.522;10.702;2023-01-27T04:59:53;99624.09;;;-0.35;100.00
45621;BME280;31345;51.522;10.702;2023-01-27T05:02:28;99623.00;;;-0.16;100.00
45621;BME280;31345;51.522;10.702;2023-01-27T05:04:55;99624.81;;;-0.22;100.00
45621;BME280;31345;51.522;10.702;2023-01-27T05:07:23;99627.41;;;-0.25;100.00
45621;BME280;31345;51.522;10.702;2023-01-27T05:09:51;99629.09;;;-0.24;100.00
45621;BME280;31345;51.522;10.702;2023-01-27T05:12:24;99635.06;;;-0.20;100.00
45621;BME280;31345;51.522;10.702;2023-01-27T05:14:57;99626.53;;;-0.24;100.00
45621;BME280;31345;51.522;10.702;2023-01-27T05:17:32;99637.72;;;-0.28;100.00
45621;BME280;31345;51.522;10.702;2023-01-27T05:20:05;99640.34;;;-0.33;100.00
45621;BME280;31345;51.522;10.702;2023-01-27T05:22:39;99640.34;;;-0.33;100.00
45621;BME280;31345;51.522;10.702;2023-01-27T05:25:12;99636.97;;;-0.36;100.00
45621;BME280;31345;51.522;10.702;2023-01-27T05:27:45;99641.19;;;-0.32;100.00
45621;BME280;31345;51.522;10.702;2023-01-27T05:30:18;99642.06;;;-0.32;100.00
45621;BME280;31345;51.522;10.702;2023-01-27T05:32:47;99646.31;;;-0.30;100.00
45621;BME280;31345;51.522;10.702;2023-01-27T05:35:20;99653.25;;;-0.36;100.00
45621;BME280;31345;51.522;10.702;2023-01-27T05:37:47;99659.22;;;-0.35;100.00
45621;BME280;31345;51.522;10.702;2023-01-27T05:40:16;99654.94;;;-0.36;100.00
45621;BME280;31345;51.522;10.702;2023-01-27T05:42:50;99657.53;;;-0.38;100.00
45621;BME280;31345;51.522;10.702;2023-01-27T05:45:19;99665.13;;;-0.28;100.00
45621;BME280;31345;51.522;10.702;2023-01-27T05:47:51;99664.28;;;-0.27;100.00
45621;BME280;31345;51.522;10.702;2023-01-27T05:50:24;99669.47;;;-0.35;100.00
45621;BME280;31345;51.522;10.702;2023-01-27T05:52:52;99670.34;;;-0.33;100.00
45621;BME280;31345;51.522;10.702;2023-01-27T05:55:19;99674.63;;;-0.37;100.00
45621;BME280;31345;51.522;10.702;2023-01-27T05:57:53;99672.88;;;-0.32;100.00
45621;BME280;31345;51.522;10.702;2023-01-27T06:00:21;99689.22;;;-0.36;100.00
45621;BME280;31345;51.522;10.702;2023-01-27T06:02:51;99679.63;;;-0.23;100.00
45621;BME280;31345;51.522;10.702;2023-01-27T06:05:24;99678.84;;;-0.29;100.00
45621;BME280;31345;51.522;10.702;2023-01-27T06:07:52;99697.53;;;-0.15;100.00
45621;BME280;31345;51.522;10.702;2023-01-27T06:10:19;99699.34;;;-0.25;100.00
45621;BME280;31345;51.522;10.702;2023-01-27T06:12:52;99697.72;;;-0.32;100.00
45621;BME280;31345;51.522;10.702;2023-01-27T06:15:25;99703.59;;;-0.22;100.00
45621;BME280;31345;51.522;10.702;2023-01-27T06:17:55;99707.09;;;-0.28;100.00
45621;BME280;31345;51.522;10.702;2023-01-27T06:20:22;99701.97;;;-0.29;100.00
45621;BME280;31345;51.522;10.702;2023-01-27T06:22:55;99707.91;;;-0.24;100.00
45621;BME280;31345;51.522;10.702;2023-01-27T06:25:29;99708.66;;;-0.14;100.00
45621;BME280;31345;51.522;10.702;2023-01-27T06:27:57;99718.16;;;-0.23;100.00
45621;BME280;31345;51.522;10.702;2023-01-27T06:30:25;99708.69;;;-0.16;100.00
45621;BME280;31345;51.522;10.702;2023-01-27T06:32:55;99712.94;;;-0.15;100.00
45621;BME280;31345;51.522;10.702;2023-01-27T06:35:22;99715.59;;;-0.23;100.00
45621;BME280;31345;51.522;10.702;2023-01-27T06:37:56;99716.41;;;-0.17;100.00
45621;BME280;31345;51.522;10.702;2023-01-27T06:40:24;99718.16;;;-0.23;100.00
45621;BME280;31345;51.522;10.702;2023-01-27T06:42:57;99719.03;;;-0.22;100.00
45621;BME280;31345;51.522;10.702;2023-01-27T06:45:26;99708.75;;;-0.22;100.00
45621;BME280;31345;51.522;10.702;2023-01-27T06:48:00;99716.56;;;-0.30;100.00
45621;BME280;31345;51.522;10.702;2023-01-27T06:50:34;99714.03;;;-0.35;100.00
45621;BME280;31345;51.522;10.702;2023-01-27T06:53:07;99721.59;;;-0.22;100.00
45621;BME280;31345;51.522;10.702;2023-01-27T06:55:40;99725.03;;;-0.23;100.00
45621;BME280;31345;51.522;10.702;2023-01-27T06:58:10;99721.59;;;-0.21;100.00
45621;BME280;31345;51.522;10.702;2023-01-27T07:00:39;99718.25;;;-0.29;100.00
45621;BME280;31345;51.522;10.702;2023-01-27T07:03:13;99721.69;;;-0.30;100.00
45621;BME280;31345;51.522;10.702;2023-01-27T07:05:46;99722.63;;;-0.36;100.00
45621;BME280;31345;51.522;10.702;2023-01-27T07:08:19;99717.47;;;-0.36;100.00
45621;BME280;31345;51.522;10.702;2023-01-27T07:10:51;99720.88;;;-0.37;100.00
45621;BME280;31345;51.522;10.702;2023-01-27T07:13:19;99721.72;;;-0.33;100.00
45621;BME280;31345;51.522;10.702;2023-01-27T07:15:52;99727.69;;;-0.33;100.00
45621;BME280;31345;51.522;10.702;2023-01-27T07:18:26;99727.75;;;-0.37;100.00
45621;BME280;31345;51.522;10.702;2023-01-27T07:20:59;99730.34;;;-0.37;100.00
45621;BME280;31345;51.522;10.702;2023-01-27T07:23:34;99733.50;;;-0.13;100.00
45621;BME280;31345;51.522;10.702;2023-01-27T07:26:02;99743.88;;;-0.23;100.00
45621;BME280;31345;51.522;10.702;2023-01-27T07:28:30;99744.69;;;-0.17;100.00
45621;BME280;31345;51.522;10.702;2023-01-27T07:31:00;99743.91;;;-0.26;100.00
45621;BME280;31345;51.522;10.702;2023-01-27T07:33:30;99748.91;;;-0.12;100.00
45621;BME280;31345;51.522;10.702;2023-01-27T07:35:57;99750.59;;;-0.09;100.00
45621;BME280;31345;51.522;10.702;2023-01-27T07:38:30;99750.63;;;-0.12;100.00
45621;BME280;31345;51.522;10.702;2023-01-27T07:41:03;99752.25;;;-0.05;100.00
45621;BME280;31345;51.522;10.702;2023-01-27T07:43:36;99756.56;;;-0.09;100.00
45621;BME280;31345;51.522;10.702;2023-01-27T07:46:07;99749.44;;;0.14;100.00
45621;BME280;31345;51.522;10.702;2023-01-27T07:48:36;99752.00;;;0.14;100.00
45621;BME280;31345;51.522;10.702;2023-01-27T07:51:03;99748.69;;;0.05;100.00
45621;BME280;31345;51.522;10.702;2023-01-27T07:53:31;99755.53;;;0.08;100.00
45621;BME280;31345;51.522;10.702;2023-01-27T07:56:04;99759.81;;;0.09;100.00
45621;BME280;31345;51.522;10.702;2023-01-27T07:58:37;99759.88;;;0.03;100.00
45621;BME280;31345;51.522;10.702;2023-01-27T08:01:11;99758.94;;;0.10;100.00
45621;BME280;31345;51.522;10.702;2023-01-27T08:03:45;99760.59;;;0.13;100.00
45621;BME280;31345;51.522;10.702;2023-01-27T08:06:18;99761.50;;;0.09;100.00
45621;BME280;31345;51.522;10.702;2023-01-27T08:08:51;99763.19;;;0.11;100.00
45621;BME280;31345;51.522;10.702;2023-01-27T08:11:26;99761.25;;;0.32;100.00
45621;BME280;31345;51.522;10.702;2023-01-27T08:13:59;99771.56;;;0.30;100.00
45621;BME280;31345;51.522;10.702;2023-01-27T08:16:31;99772.41;;;0.29;100.00
45621;BME280;31345;51.522;10.702;2023-01-27T08:19:05;99769.78;;;0.32;100.00
45621;BME280;31345;51.522;10.702;2023-01-27T08:21:33;99779.19;;;0.37;100.00
45621;BME280;31345;51.522;10.702;2023-01-27T08:24:00;99780.19;;;0.26;100.00
45621;BME280;31345;51.522;10.702;2023-01-27T08:26:33;99778.28;;;0.39;100.00
45621;BME280;31345;51.522;10.702;2023-01-27T08:29:06;99777.44;;;0.40;100.00
45621;BME280;31345;51.522;10.702;2023-01-27T08:31:40;99775.59;;;0.50;100.00
45621;BME280;31345;51.522;10.702;2023-01-27T08:34:09;99779.09;;;0.43;100.00
45621;BME280;31345;51.522;10.702;2023-01-27T08:36:39;99774.78;;;0.43;100.00
45621;BME280;31345;51.522;10.702;2023-01-27T08:39:11;99786.72;;;0.49;100.00
45621;BME280;31345;51.522;10.702;2023-01-27T08:41:44;99786.72;;;0.51;100.00
45621;BME280;31345;51.522;10.702;2023-01-27T08:44:17;99781.50;;;0.55;100.00
45621;BME280;31345;51.522;10.702;2023-01-27T08:46:44;99790.88;;;0.63;100.00
45621;BME280;31345;51.522;10.702;2023-01-27T08:49:13;99785.75;;;0.59;100.00
45621;BME280;31345;51.522;10.702;2023-01-27T08:51:46;99788.78;;;0.88;100.00
45621;BME280;31345;51.522;10.702;2023-01-27T08:54:13;99781.91;;;0.87;100.00
45621;BME280;31345;51.522;10.702;2023-01-27T08:56:46;99793.09;;;0.86;100.00
45621;BME280;31345;51.522;10.702;2023-01-27T08:59:13;99789.59;;;0.90;100.00
45621;BME280;31345;51.522;10.702;2023-01-27T09:01:46;99794.56;;;1.03;100.00
45621;BME280;31345;51.522;10.702;2023-01-27T09:04:15;99792.03;;;1.00;100.00
45621;BME280;31345;51.522;10.702;2023-01-27T09:06:48;99798.69;;;1.15;100.00
45621;BME280;31345;51.522;10.702;2023-01-27T09:09:15;99796.91;;;1.18;100.00
45621;BME280;31345;51.522;10.702;2023-01-27T09:11:44;99802.03;;;1.21;100.00
45621;BME280;31345;51.522;10.702;2023-01-27T09:14:17;99801.16;;;1.21;100.00
45621;BME280;31345;51.522;10.702;2023-01-27T09:16:46;99801.06;;;1.29;100.00
45621;BME280;31345;51.522;10.702;2023-01-27T09:19:15;99803.66;;;1.27;100.00
45621;BME280;31345;51.522;10.702;2023-01-27T09:21:47;99800.66;;;1.52;100.00
45621;BME280;31345;51.522;10.702;2023-01-27T09:24:20;99795.41;;;1.58;100.00
45621;BME280;31345;51.522;10.702;2023-01-27T09:26:52;99808.75;;;1.82;100.00
45621;BME280;31345;51.522;10.702;2023-01-27T09:29:25;99807.00;;;1.83;100.00
45621;BME280;31345;51.522;10.702;2023-01-27T09:31:59;99799.41;;;1.75;100.00
45621;BME280;31345;51.522;10.702;2023-01-27T09:34:28;99804.38;;;1.84;100.00
45621;BME280;31345;51.522;10.702;2023-01-27T09:37:00;99810.25;;;1.93;100.00
45621;BME280;31345;51.522;10.702;2023-01-27T09:39:37;99808.78;;;1.81;100.00
45621;BME280;31345;51.522;10.702;2023-01-27T09:45:21;99815.38;;;1.94;100.00
45621;BME280;31345;51.522;10.702;2023-01-27T09:48:02;99811.09;;;1.95;100.00
45621;BME280;31345;51.522;10.702;2023-01-27T09:50:43;99816.31;;;1.90;100.00
45621;BME280;31345;51.522;10.702;2023-01-27T09:53:30;99812.72;;;1.99;100.00
45621;BME280;31345;51.522;10.702;2023-01-27T09:56:10;99812.13;;;1.84;100.00
45621;BME280;31345;51.522;10.702;2023-01-27T09:58:59;99811.78;;;2.05;100.00
45621;BME280;31345;51.522;10.702;2023-01-27T10:01:41;99808.44;;;1.98;100.00
45621;BME280;31345;51.522;10.702;2023-01-27T10:04:32;99821.25;;;2.03;100.00
45621;BME280;31345;51.522;10.702;2023-01-27T10:07:23;99813.72;;;2.36;100.00
45621;BME280;31345;51.522;10.702;2023-01-27T10:10:16;99820.75;;;2.29;100.00
45621;BME280;31345;51.522;10.702;2023-01-27T10:13:00;99817.91;;;2.42;100.00
45621;BME280;31345;51.522;10.702;2023-01-27T10:15:46;99811.69;;;2.52;100.00
45621;BME280;31345;51.522;10.702;2023-01-27T10:18:36;99806.44;;;2.57;100.00
45621;BME280;31345;51.522;10.702;2023-01-27T10:21:18;99809.31;;;2.43;100.00
45621;BME280;31345;51.522;10.702;2023-01-27T10:24:00;99803.88;;;2.55;100.00
45621;BME280;31345;51.522;10.702;2023-01-27T10:26:40;99800.31;;;2.61;100.00
45621;BME280;31345;51.522;10.702;2023-01-27T10:29:19;99803.75;;;2.60;100.00
45621;BME280;31345;51.522;10.702;2023-01-27T10:31:56;99802.72;;;2.69;100.00
45621;BME280;31345;51.522;10.702;2023-01-27T10:34:34;99794.88;;;2.73;100.00
45621;BME280;31345;51.522;10.702;2023-01-27T10:37:16;99801.69;;;2.77;100.00
45621;BME280;31345;51.522;10.702;2023-01-27T10:39:57;99806.66;;;2.85;100.00
45621;BME280;31345;51.522;10.702;2023-01-27T10:42:35;99802.41;;;2.84;100.00
45621;BME280;31345;51.522;10.702;2023-01-27T10:45:21;99799.06;;;2.79;100.00
45621;BME280;31345;51.522;10.702;2023-01-27T10:48:16;99806.63;;;2.87;100.00
45621;BME280;31345;51.522;10.702;2023-01-27T10:50:50;99809.81;;;2.98;100.00
45621;BME280;31345;51.522;10.702;2023-01-27T10:53:31;99817.38;;;3.06;100.00
45621;BME280;31345;51.522;10.702;2023-01-27T10:56:12;99814.25;;;2.93;100.00
45621;BME280;31345;51.522;10.702;2023-01-27T10:58:49;99817.63;;;2.95;100.00
45621;BME280;31345;51.522;10.702;2023-01-27T11:01:29;99819.44;;;2.91;100.00
45621;BME280;31345;51.522;10.702;2023-01-27T11:04:03;99816.63;;;3.02;100.00
45621;BME280;31345;51.522;10.702;2023-01-27T11:06:40;99822.84;;;2.94;100.00
45621;BME280;31345;51.522;10.702;2023-01-27T11:09:20;99813.44;;;2.91;100.00
45621;BME280;31345;51.522;10.702;2023-01-27T11:12:04;99812.34;;;3.01;100.00
45621;BME280;31345;51.522;10.702;2023-01-27T11:14:41;99806.25;;;3.04;100.00
45621;BME280;31345;51.522;10.702;2023-01-27T11:17:19;99806.13;;;3.10;100.00
45621;BME280;31345;51.522;10.702;2023-01-27T11:19:56;99802.78;;;3.05;100.00
45621;BME280;31345;51.522;10.702;2023-01-27T11:22:28;99803.59;;;3.07;100.00
45621;BME280;31345;51.522;10.702;2023-01-27T11:25:05;99803.25;;;3.23;100.00
45621;BME280;31345;51.522;10.702;2023-01-27T11:27:54;99787.78;;;3.21;100.00
45621;BME280;31345;51.522;10.702;2023-01-27T11:30:33;99794.72;;;3.17;100.00
45621;BME280;31345;51.522;10.702;2023-01-27T11:33:12;99791.31;;;3.17;100.00
45621;BME280;31345;51.522;10.702;2023-01-27T11:35:44;99789.34;;;3.28;100.00
45621;BME280;31345;51.522;10.702;2023-01-27T11:38:18;99784.34;;;3.21;100.00
45621;BME280;31345;51.522;10.702;2023-01-27T11:40:52;99784.09;;;3.30;100.00
45621;BME280;31345;51.522;10.702;2023-01-27T11:43:27;99780.44;;;3.39;100.00
45621;BME280;31345;51.522;10.702;2023-01-27T11:45:59;99780.34;;;3.43;100.00
45621;BME280;31345;51.522;10.702;2023-01-27T11:48:36;99777.97;;;3.34;100.00
45621;BME280;31345;51.522;10.702;2023-01-27T11:51:14;99774.91;;;3.53;100.00
45621;BME280;31345;51.522;10.702;2023-01-27T11:53:58;99772.31;;;3.54;100.00
45621;BME280;31345;51.522;10.702;2023-01-27T11:56:30;99777.56;;;3.50;100.00
45621;BME280;31345;51.522;10.702;2023-01-27T11:59:08;99782.56;;;3.58;100.00
45621;BME280;31345;51.522;10.702;2023-01-27T12:01:47;99770.41;;;3.61;100.00
45621;BME280;31345;51.522;10.702;2023-01-27T12:04:23;99771.25;;;3.62;100.00
45621;BME280;31345;51.522;10.702;2023-01-27T12:07:03;99767.81;;;3.61;100.00
45621;BME280;31345;51.522;10.702;2023-01-27T12:09:37;99761.91;;;3.56;100.00
45621;BME280;31345;51.522;10.702;2023-01-27T12:12:12;99766.16;;;3.59;100.00
45621;BME280;31345;51.522;10.702;2023-01-27T12:14:49;99770.53;;;3.56;100.00
45621;BME280;31345;51.522;10.702;2023-01-27T12:17:28;99771.31;;;3.59;100.00
45621;BME280;31345;51.522;10.702;2023-01-27T12:20:06;99770.78;;;3.46;100.00
45621;BME280;31345;51.522;10.702;2023-01-27T12:22:50;99766.91;;;3.62;100.00
45621;BME280;31345;51.522;10.702;2023-01-27T12:25:21;99769.59;;;3.59;100.00
45621;BME280;31345;51.522;10.702;2023-01-27T12:27:56;99768.47;;;3.69;100.00
45621;BME280;31345;51.522;10.702;2023-01-27T12:30:32;99772.09;;;3.62;100.00
45621;BME280;31345;51.522;10.702;2023-01-27T12:33:09;99762.09;;;3.48;100.00
45621;BME280;31345;51.522;10.702;2023-01-27T12:35:38;99769.06;;;3.46;100.00
45621;BME280;31345;51.522;10.702;2023-01-27T12:38:12;99770.06;;;3.40;100.00
45621;BME280;31345;51.522;10.702;2023-01-27T12:40:55;99761.34;;;3.45;100.00
45621;BME280;31345;51.522;10.702;2023-01-27T12:43:29;99758.03;;;3.39;100.00
45621;BME280;31345;51.522;10.702;2023-01-27T12:46:14;99755.78;;;3.27;100.00
45621;BME280;31345;51.522;10.702;2023-01-27T12:48:50;99764.16;;;3.35;100.00
45621;BME280;31345;51.522;10.702;2023-01-27T12:51:37;99750.59;;;3.27;100.00
45621;BME280;31345;51.522;10.702;2023-01-27T12:54:15;99759.31;;;3.23;100.00
45621;BME280;31345;51.522;10.702;2023-01-27T12:56:55;99759.09;;;3.30;100.00
45621;BME280;31345;51.522;10.702;2023-01-27T12:59:23;99753.97;;;3.29;100.00
45621;BME280;31345;51.522;10.702;2023-01-27T13:02:15;99759.06;;;3.32;100.00
45621;BME280;31345;51.522;10.702;2023-01-27T13:04:51;99762.75;;;3.22;100.00
45621;BME280;31345;51.522;10.702;2023-01-27T13:07:23;99768.59;;;3.30;100.00
45621;BME280;31345;51.522;10.702;2023-01-27T13:09:58;99768.56;;;3.32;100.00
45621;BME280;31345;51.522;10.702;2023-01-27T13:12:46;99762.59;;;3.29;100.00
45621;BME280;31345;51.522;10.702;2023-01-27T13:15:21;99779.00;;;3.28;100.00
45621;BME280;31345;51.522;10.702;2023-01-27T13:17:52;99778.16;;;3.26;100.00
45621;BME280;31345;51.522;10.702;2023-01-27T13:20:28;99778.78;;;3.36;100.00
45621;BME280;31345;51.522;10.702;2023-01-27T13:22:58;99771.06;;;3.35;100.00
45621;BME280;31345;51.522;10.702;2023-01-27T13:25:31;99776.16;;;3.38;100.00
45621;BME280;31345;51.522;10.702;2023-01-27T13:28:04;99775.19;;;3.42;100.00